createdAt,value
2022-10-11T00:01:46.743Z,4.53
2022-10-11T00:04:13.609Z,5.00
2022-10-11T00:06:43.153Z,5.50
2022-10-11T00:09:11.578Z,5.20
2022-10-11T00:11:38.972Z,5.33
2022-10-11T00:14:06.753Z,4.73
2022-10-11T00:16:33.462Z,4.90
2022-10-11T00:19:00.206Z,5.00
2022-10-11T00:21:27.131Z,4.70
2022-10-11T00:23:53.858Z,4.43
2022-10-11T00:26:20.558Z,5.70
2022-10-11T00:28:47.190Z,4.60
2022-10-11T00:31:18.333Z,5.20
2022-10-11T00:33:46.025Z,5.27
2022-10-11T00:36:18.647Z,4.83
2022-10-11T00:38:45.709Z,4.90
2022-10-11T00:41:13.512Z,5.70
2022-10-11T00:43:40.987Z,5.43
2022-10-11T00:46:13.974Z,5.40
2022-10-11T00:48:46.117Z,5.80
2022-10-11T00:51:45.675Z,5.33
2022-10-11T00:54:15.862Z,5.30
2022-10-11T00:56:45.664Z,5.70
2022-10-11T00:59:20.716Z,6.13
2022-10-11T01:01:47.834Z,4.80
2022-10-11T01:04:14.982Z,5.40
2022-10-11T01:06:42.714Z,5.80
2022-10-11T01:09:09.943Z,4.70
2022-10-11T01:11:39.143Z,6.10
2022-10-11T01:14:21.866Z,6.30
2022-10-11T01:16:48.787Z,5.87
2022-10-11T01:19:49.829Z,6.10
2022-10-11T01:22:45.517Z,5.97
2022-10-11T01:25:18.501Z,7.10
2022-10-11T01:28:19.017Z,5.60
2022-10-11T01:30:46.365Z,6.63
2022-10-11T01:33:45.465Z,6.60
2022-10-11T01:36:31.206Z,6.27
2022-10-11T01:39:11.893Z,5.63
2022-10-11T01:41:47.068Z,6.70
2022-10-11T01:44:14.303Z,6.40
2022-10-11T01:46:41.381Z,6.10
2022-10-11T01:49:08.069Z,6.47
2022-10-11T01:51:45.075Z,6.60
2022-10-11T01:54:44.078Z,6.73
2022-10-11T01:57:33.736Z,5.90
2022-10-11T02:00:14.262Z,7.00
2022-10-11T02:02:47.739Z,5.90
2022-10-11T02:05:29.484Z,6.30
2022-10-11T02:08:12.238Z,6.43
2022-10-11T02:10:54.426Z,6.47
2022-10-11T02:13:43.430Z,5.70
2022-10-11T02:16:16.464Z,5.80
2022-10-11T02:18:51.544Z,6.50
2022-10-11T02:21:23.536Z,7.50
2022-10-11T02:24:08.092Z,6.60
2022-10-11T02:26:36.183Z,6.03
2022-10-11T02:29:07.320Z,6.93
2022-10-11T02:31:35.734Z,5.60
2022-10-11T02:34:14.037Z,7.03
2022-10-11T02:36:54.155Z,6.83
2022-10-11T02:39:26.643Z,7.17
2022-10-11T02:41:59.781Z,6.67
2022-10-11T02:44:32.254Z,7.80
2022-10-11T02:47:01.200Z,6.00
2022-10-11T02:49:29.687Z,6.87
2022-10-11T02:51:57.564Z,6.40
2022-10-11T02:54:25.993Z,7.80
2022-10-11T02:56:52.572Z,6.93
2022-10-11T02:59:19.247Z,7.50
2022-10-11T03:01:45.944Z,7.00
2022-10-11T03:04:12.738Z,7.40
2022-10-11T03:06:39.507Z,7.50
2022-10-11T03:09:06.577Z,7.60
2022-10-11T03:11:33.302Z,7.20
2022-10-11T03:13:59.857Z,7.30
2022-10-11T03:16:26.550Z,7.17
2022-10-11T03:18:53.161Z,6.17
2022-10-11T03:21:19.841Z,7.03
2022-10-11T03:23:46.508Z,6.33
2022-10-11T03:26:13.117Z,7.27
2022-10-11T03:28:39.844Z,6.80
2022-10-11T03:31:06.485Z,7.07
2022-10-11T03:33:33.185Z,6.47
2022-10-11T03:35:59.815Z,6.10
2022-10-11T03:38:26.578Z,6.13
2022-10-11T03:40:53.282Z,6.20
2022-10-11T03:43:20.316Z,7.30
2022-10-11T03:45:47.028Z,7.57
2022-10-11T03:48:13.653Z,6.60
2022-10-11T03:50:40.362Z,6.20
2022-10-11T03:53:07.285Z,6.43
2022-10-11T03:55:33.868Z,7.47
2022-10-11T03:58:00.739Z,6.87
2022-10-11T04:00:27.505Z,6.60
2022-10-11T04:02:54.211Z,5.80
2022-10-11T04:05:20.819Z,6.47
2022-10-11T04:07:47.579Z,6.73
2022-10-11T04:10:14.558Z,5.50
2022-10-11T04:12:41.277Z,6.57
2022-10-11T04:15:08.601Z,6.20
2022-10-11T04:17:35.202Z,5.70
2022-10-11T04:20:01.909Z,6.80
2022-10-11T04:22:28.572Z,7.70
2022-10-11T04:24:55.230Z,7.87
2022-10-11T04:27:22.189Z,8.23
2022-10-11T04:29:48.811Z,6.77
2022-10-11T04:32:15.612Z,7.40
2022-10-11T04:34:42.273Z,7.77
2022-10-11T04:37:08.897Z,6.93
2022-10-11T04:39:35.757Z,7.27
2022-10-11T04:42:02.330Z,7.57
2022-10-11T04:44:28.970Z,7.50
2022-10-11T04:46:55.623Z,7.57
2022-10-11T04:49:22.441Z,7.20
2022-10-11T04:51:49.172Z,7.57
2022-10-11T04:54:15.934Z,6.83
2022-10-11T04:56:42.627Z,7.47
2022-10-11T04:59:09.339Z,7.03
2022-10-11T05:01:36.010Z,7.37
2022-10-11T05:04:03.050Z,6.50
2022-10-11T05:06:29.694Z,7.00
2022-10-11T05:08:56.489Z,7.90
2022-10-11T05:11:23.245Z,7.57
2022-10-11T05:13:50.145Z,7.30
2022-10-11T05:16:17.346Z,7.50
2022-10-11T05:18:44.445Z,6.67
2022-10-11T05:21:19.331Z,7.50
2022-10-11T05:23:47.614Z,6.50
2022-10-11T05:26:14.685Z,7.77
2022-10-11T05:28:41.333Z,6.60
2022-10-11T05:31:08.563Z,7.87
2022-10-11T05:33:35.282Z,7.40
2022-10-11T05:36:02.388Z,9.07
2022-10-11T05:38:29.530Z,8.70
2022-10-11T05:40:59.902Z,8.87
2022-10-11T05:43:27.091Z,7.57
2022-10-11T05:45:54.045Z,8.63
2022-10-11T05:48:21.496Z,8.10
2022-10-11T05:50:48.322Z,8.43
2022-10-11T05:53:14.939Z,7.87
2022-10-11T05:55:43.634Z,8.23
2022-10-11T05:58:13.618Z,8.50
2022-10-11T06:00:40.553Z,7.70
2022-10-11T06:03:08.696Z,8.70
2022-10-11T06:05:35.840Z,7.70
2022-10-11T06:08:04.012Z,9.27
2022-10-11T06:10:30.601Z,8.23
2022-10-11T06:12:57.393Z,7.90
2022-10-11T06:15:24.499Z,7.53
2022-10-11T06:17:51.419Z,6.93
2022-10-11T06:20:18.385Z,8.80
2022-10-11T06:22:45.063Z,7.27
2022-10-11T06:25:12.160Z,9.07
2022-10-11T06:27:38.756Z,7.03
2022-10-11T06:30:07.244Z,7.07
2022-10-11T06:32:33.958Z,8.10
2022-10-11T06:35:00.686Z,7.90
2022-10-11T06:37:27.509Z,7.57
2022-10-11T06:39:54.094Z,8.10
2022-10-11T06:42:20.843Z,7.10
2022-10-11T06:44:47.491Z,8.73
2022-10-11T06:47:14.146Z,7.50
2022-10-11T06:49:40.729Z,7.97
2022-10-11T06:52:07.581Z,7.60
2022-10-11T06:54:34.229Z,7.47
2022-10-11T06:57:00.798Z,7.80
2022-10-11T06:59:27.436Z,8.23
2022-10-11T07:01:54.047Z,8.83
2022-10-11T07:04:20.663Z,6.70
2022-10-11T07:06:47.249Z,7.50
2022-10-11T07:09:14.717Z,7.47
2022-10-11T07:11:41.356Z,7.60
2022-10-11T07:14:08.166Z,7.70
2022-10-11T07:16:36.192Z,8.87
2022-10-11T07:19:04.937Z,8.87
2022-10-11T07:21:33.566Z,8.03
2022-10-11T07:24:01.454Z,9.17
2022-10-11T07:26:33.976Z,8.87
2022-10-11T07:29:05.196Z,8.63
2022-10-11T07:31:32.025Z,8.80
2022-10-11T07:33:58.657Z,9.30
2022-10-11T07:36:25.865Z,9.07
2022-10-11T07:38:52.789Z,10.63
2022-10-11T07:41:20.112Z,9.90
2022-10-11T07:43:49.432Z,9.80
2022-10-11T07:46:17.431Z,9.07
2022-10-11T07:48:44.026Z,10.77
2022-10-11T07:51:13.943Z,10.13
2022-10-11T07:53:42.639Z,10.33
2022-10-11T07:56:12.414Z,10.30
2022-10-11T07:58:40.232Z,11.00
2022-10-11T08:01:07.994Z,10.10
2022-10-11T08:03:35.382Z,10.37
2022-10-11T08:06:05.522Z,10.37
2022-10-11T08:08:32.609Z,10.77
2022-10-11T08:10:59.955Z,11.83
2022-10-11T08:13:27.542Z,11.63
2022-10-11T08:15:54.722Z,12.00
2022-10-11T08:18:21.757Z,10.43
2022-10-11T08:20:48.819Z,11.20
2022-10-11T08:23:17.279Z,12.20
2022-10-11T08:25:46.410Z,12.70
2022-10-11T08:28:17.304Z,12.30
2022-10-11T08:30:54.162Z,12.20
2022-10-11T08:33:22.504Z,12.73
2022-10-11T08:35:50.333Z,11.37
2022-10-11T08:38:18.008Z,13.43
2022-10-11T08:40:53.401Z,12.70
2022-10-11T08:43:45.947Z,13.10
2022-10-11T08:46:15.336Z,12.00
2022-10-11T08:48:48.989Z,12.30
2022-10-11T08:51:22.775Z,11.93
2022-10-11T08:53:55.993Z,12.83
2022-10-11T08:56:24.231Z,11.53
2022-10-11T08:59:11.395Z,10.30
2022-10-11T09:01:46.298Z,10.00
2022-10-11T09:04:17.611Z,10.43
2022-10-11T09:07:23.653Z,9.57
2022-10-11T09:10:08.489Z,8.70
2022-10-11T09:13:01.053Z,7.60
2022-10-11T09:15:51.892Z,7.37
2022-10-11T09:18:27.948Z,7.27
2022-10-11T09:21:24.877Z,6.57
2022-10-11T09:23:51.446Z,5.30
2022-10-11T09:26:35.226Z,6.57
2022-10-11T09:29:08.245Z,5.50
2022-10-11T09:31:35.036Z,5.50
2022-10-11T09:34:12.769Z,4.80
2022-10-11T09:36:54.717Z,4.60
2022-10-11T09:39:31.842Z,5.20
2022-10-11T09:42:07.750Z,4.90
2022-10-11T09:44:38.904Z,4.83
2022-10-11T09:47:07.294Z,4.40
2022-10-11T09:50:35.545Z,4.80
2022-10-11T09:53:05.008Z,4.43
2022-10-11T09:55:33.441Z,4.23
2022-10-11T09:58:00.501Z,3.90
2022-10-11T10:00:30.063Z,4.63
2022-10-11T10:02:59.470Z,4.70
2022-10-11T10:05:36.674Z,4.30
2022-10-11T10:08:09.377Z,4.10
2022-10-11T10:10:36.035Z,3.27
2022-10-11T10:13:05.925Z,4.17
2022-10-11T10:15:37.945Z,2.93
2022-10-11T10:18:10.725Z,2.57
2022-10-11T10:20:38.295Z,3.80
2022-10-11T10:23:18.962Z,3.23
2022-10-11T10:25:50.952Z,3.00
2022-10-11T10:28:26.410Z,2.23
2022-10-11T10:30:56.321Z,2.33
2022-10-11T10:33:31.434Z,2.87
2022-10-11T10:36:09.249Z,2.53
2022-10-11T10:38:52.169Z,3.07
2022-10-11T10:41:19.405Z,3.43
2022-10-11T10:43:56.469Z,2.63
2022-10-11T10:46:35.389Z,2.73
2022-10-11T10:52:13.027Z,2.00
2022-10-11T10:54:50.883Z,2.40
2022-10-11T10:57:33.349Z,2.17
2022-10-11T11:00:21.981Z,2.27
2022-10-11T11:03:02.158Z,2.30
2022-10-11T11:05:54.781Z,2.13
2022-10-11T11:08:46.588Z,2.63
2022-10-11T11:11:25.404Z,2.00
2022-10-11T11:14:24.837Z,2.37
2022-10-11T11:17:17.891Z,2.00
2022-10-11T11:20:16.266Z,2.10
2022-10-11T11:22:55.318Z,2.73
2022-10-11T11:25:34.407Z,1.90
2022-10-11T11:28:41.901Z,2.03
2022-10-11T11:31:33.798Z,1.53
2022-10-11T11:34:38.412Z,2.30
2022-10-11T11:37:13.782Z,2.77
2022-10-11T11:39:56.032Z,2.23
2022-10-11T11:42:44.065Z,2.80
2022-10-11T11:45:51.646Z,2.40
2022-10-11T11:48:21.312Z,2.40
2022-10-11T11:51:11.362Z,1.90
2022-10-11T11:53:53.459Z,2.87
2022-10-11T11:56:47.354Z,2.87
2022-10-11T11:59:43.706Z,2.93
2022-10-11T12:02:29.285Z,2.47
2022-10-11T12:04:57.323Z,2.10
2022-10-11T12:07:27.609Z,1.93
2022-10-11T12:10:16.633Z,2.37
2022-10-11T12:12:43.746Z,1.97
2022-10-11T12:15:24.820Z,2.40
2022-10-11T12:17:57.565Z,1.90
2022-10-11T12:20:31.505Z,1.70
2022-10-11T12:23:00.448Z,2.30
2022-10-11T12:25:27.154Z,2.13
2022-10-11T12:27:59.178Z,2.30
2022-10-11T12:30:52.486Z,2.00
2022-10-11T12:33:22.877Z,1.97
2022-10-11T12:35:52.816Z,3.30
2022-10-11T12:38:25.643Z,1.90
2022-10-11T12:41:13.415Z,2.00
2022-10-11T12:44:01.295Z,2.63
2022-10-11T12:46:28.050Z,1.70
2022-10-11T12:49:09.795Z,2.27
2022-10-11T12:51:44.873Z,2.17
2022-10-11T12:54:34.499Z,2.37
2022-10-11T12:57:12.111Z,2.20
2022-10-11T12:59:43.975Z,2.27
2022-10-11T13:02:40.863Z,2.33
2022-10-11T13:05:27.115Z,2.30
2022-10-11T13:07:58.073Z,1.70
2022-10-11T13:10:32.977Z,2.20
2022-10-11T13:13:04.219Z,2.60
2022-10-11T13:15:34.382Z,1.67
2022-10-11T13:18:04.259Z,2.30
2022-10-11T13:20:59.858Z,2.17
2022-10-11T13:23:35.871Z,2.17
2022-10-11T13:26:06.186Z,1.80
2022-10-11T13:28:41.275Z,1.90
2022-10-11T13:31:33.186Z,2.90
2022-10-11T13:34:00.438Z,2.03
2022-10-11T13:36:27.951Z,2.40
2022-10-11T13:39:03.342Z,1.83
2022-10-11T13:41:31.866Z,2.10
2022-10-11T13:44:05.132Z,1.87
2022-10-11T13:46:36.599Z,2.20
2022-10-11T13:49:25.546Z,2.20
2022-10-11T13:52:01.852Z,2.67
2022-10-11T13:54:57.138Z,2.50
2022-10-11T13:57:39.223Z,2.57
2022-10-11T14:00:15.060Z,2.20
2022-10-11T14:03:10.278Z,2.30
2022-10-11T14:05:44.112Z,2.00
2022-10-11T14:08:25.233Z,1.90
2022-10-11T14:10:56.675Z,1.83
2022-10-11T14:13:30.983Z,2.50
2022-10-11T14:16:11.531Z,1.90
2022-10-11T14:19:12.295Z,2.70
2022-10-11T14:21:45.959Z,1.70
2022-10-11T14:24:13.396Z,2.10
2022-10-11T14:26:46.750Z,2.07
2022-10-11T14:29:39.029Z,2.07
2022-10-11T14:32:12.006Z,2.13
2022-10-11T14:34:39.302Z,2.40
2022-10-11T14:37:06.377Z,2.20
2022-10-11T14:39:33.412Z,1.73
2022-10-11T14:42:03.914Z,2.00
2022-10-11T14:44:30.814Z,1.70
2022-10-11T14:46:57.555Z,3.20
2022-10-11T14:49:27.525Z,1.80
2022-10-11T14:52:01.762Z,2.33
2022-10-11T14:54:32.701Z,1.73
2022-10-11T14:57:03.414Z,2.37
2022-10-11T14:59:37.076Z,2.43
2022-10-11T15:02:06.101Z,2.33
2022-10-11T15:04:33.082Z,1.70
2022-10-11T15:07:00.129Z,1.87
2022-10-11T15:09:26.889Z,2.10
2022-10-11T15:11:54.737Z,2.37
2022-10-11T15:14:23.600Z,1.83
2022-10-11T15:16:50.428Z,2.23
2022-10-11T15:19:22.919Z,2.10
2022-10-11T15:21:50.098Z,2.20
2022-10-11T15:24:19.916Z,2.30
2022-10-11T15:26:47.763Z,1.83
2022-10-11T15:29:18.113Z,2.37
2022-10-11T15:31:46.252Z,2.50
2022-10-11T15:34:13.056Z,2.10
2022-10-11T15:36:39.895Z,2.30
2022-10-11T15:39:28.275Z,2.03
2022-10-11T15:41:54.965Z,2.07
2022-10-11T15:44:21.649Z,2.30
2022-10-11T15:46:48.498Z,2.30
2022-10-11T15:49:15.304Z,2.93
2022-10-11T15:51:42.033Z,2.97
2022-10-11T15:54:08.705Z,2.13
2022-10-11T15:56:47.842Z,1.73
2022-10-11T15:59:17.427Z,2.93
2022-10-11T16:01:46.843Z,2.33
2022-10-11T16:04:13.596Z,2.03
2022-10-11T16:06:41.353Z,2.27
2022-10-11T16:09:08.032Z,2.00
2022-10-11T16:11:34.710Z,2.10
2022-10-11T16:14:01.567Z,2.13
2022-10-11T16:16:28.590Z,2.10
2022-10-11T16:18:55.461Z,2.23
2022-10-11T16:21:23.723Z,2.17
2022-10-11T16:23:50.386Z,2.00
2022-10-11T16:26:17.252Z,1.90
2022-10-11T16:28:44.517Z,2.13
2022-10-11T16:31:16.764Z,2.10
2022-10-11T16:33:46.758Z,2.47
2022-10-11T16:36:32.463Z,2.27
2022-10-11T16:39:00.238Z,1.80
2022-10-11T16:41:26.899Z,2.10
2022-10-11T16:43:55.210Z,2.17
2022-10-11T16:46:22.317Z,2.07
2022-10-11T16:48:49.245Z,2.53
2022-10-11T16:51:15.846Z,2.50
2022-10-11T16:53:42.464Z,2.50
2022-10-11T16:56:11.812Z,2.33
2022-10-11T16:58:38.561Z,2.00
2022-10-11T17:01:10.898Z,2.60
2022-10-11T17:03:38.806Z,2.40
2022-10-11T17:06:07.529Z,2.70
2022-10-11T17:08:35.121Z,2.47
2022-10-11T17:11:02.016Z,3.70
2022-10-11T17:13:28.736Z,3.70
2022-10-11T17:15:55.433Z,3.30
2022-10-11T17:18:22.045Z,3.07
2022-10-11T17:20:48.943Z,2.47
2022-10-11T17:23:15.680Z,2.93
2022-10-11T17:25:46.873Z,3.40
2022-10-11T17:28:13.779Z,3.50
2022-10-11T17:30:43.212Z,2.90
2022-10-11T17:33:09.781Z,2.97
2022-10-11T17:35:36.511Z,3.50
2022-10-11T17:38:06.198Z,2.70
2022-10-11T17:40:33.491Z,3.20
2022-10-11T17:43:00.139Z,3.20
2022-10-11T17:45:26.810Z,2.67
2022-10-11T17:47:54.375Z,3.07
2022-10-11T17:50:21.077Z,2.00
2022-10-11T17:52:47.866Z,2.90
2022-10-11T17:55:15.087Z,2.87
2022-10-11T17:57:41.784Z,2.63
2022-10-11T18:00:09.142Z,2.80
2022-10-11T18:02:35.835Z,2.30
2022-10-11T18:05:04.185Z,2.90
2022-10-11T18:07:30.822Z,2.60
2022-10-11T18:09:57.806Z,2.90
2022-10-11T18:12:25.872Z,2.60
2022-10-11T18:14:52.818Z,3.10
2022-10-11T18:17:19.725Z,3.57
2022-10-11T18:19:46.420Z,3.40
2022-10-11T18:22:13.013Z,3.13
2022-10-11T18:24:41.454Z,3.80
2022-10-11T18:27:08.148Z,3.83
2022-10-11T18:29:35.002Z,3.20
2022-10-11T18:32:01.584Z,2.90
2022-10-11T18:34:28.241Z,2.93
2022-10-11T18:36:55.250Z,3.33
2022-10-11T18:39:22.043Z,2.80
2022-10-11T18:41:48.804Z,3.20
2022-10-11T18:44:16.129Z,3.33
2022-10-11T18:46:43.400Z,3.57
2022-10-11T18:49:10.059Z,4.83
2022-10-11T18:51:39.625Z,4.70
2022-10-11T18:54:07.865Z,4.90
2022-10-11T18:56:36.404Z,4.60
2022-10-11T18:59:03.817Z,4.67
2022-10-11T19:01:33.781Z,4.07
2022-10-11T19:04:02.428Z,5.10
2022-10-11T19:06:33.000Z,5.37
2022-10-11T19:09:09.357Z,4.80
2022-10-11T19:11:36.409Z,5.00
2022-10-11T19:14:14.616Z,4.47
2022-10-11T19:16:45.474Z,4.50
2022-10-11T19:19:13.052Z,5.10
2022-10-11T19:21:40.067Z,4.90
2022-10-11T19:24:07.163Z,4.63
2022-10-11T19:26:36.281Z,5.57
2022-10-11T19:29:11.911Z,5.07
2022-10-11T19:31:43.540Z,5.13
2022-10-11T19:34:10.807Z,5.60
2022-10-11T19:36:38.775Z,6.27
2022-10-11T19:39:06.099Z,6.00
2022-10-11T19:41:33.197Z,6.30
2022-10-11T19:43:59.846Z,6.20
2022-10-11T19:46:49.876Z,5.80
2022-10-11T19:49:17.298Z,6.63
2022-10-11T19:51:44.013Z,6.13
2022-10-11T19:54:13.491Z,6.37
2022-10-11T19:56:40.387Z,5.57
2022-10-11T19:59:07.428Z,6.20
2022-10-11T20:01:35.815Z,5.50
2022-10-11T20:04:05.322Z,6.20
2022-10-11T20:06:38.369Z,5.90
2022-10-11T20:11:53.972Z,6.13
2022-10-11T20:14:20.679Z,6.80
2022-10-11T20:16:50.099Z,6.70
2022-10-11T20:19:17.045Z,5.60
2022-10-11T20:21:43.913Z,5.97
2022-10-11T20:24:10.800Z,5.70
2022-10-11T20:26:37.586Z,5.80
2022-10-11T20:29:04.306Z,6.60
2022-10-11T20:31:34.119Z,5.93
2022-10-11T20:34:04.785Z,5.50
2022-10-11T20:36:33.076Z,6.13
2022-10-11T20:39:00.322Z,5.10
2022-10-11T20:41:31.376Z,6.23
2022-10-11T20:43:59.540Z,5.97
2022-10-11T20:46:29.416Z,5.63
2022-10-11T20:49:01.883Z,5.47
2022-10-11T20:51:30.655Z,6.30
2022-10-11T20:53:58.083Z,5.47
2022-10-11T20:56:24.781Z,4.73
2022-10-11T20:58:53.392Z,5.20
2022-10-11T21:01:23.495Z,6.20
2022-10-11T21:03:50.384Z,6.00
2022-10-11T21:06:17.061Z,5.73
2022-10-11T21:08:44.119Z,5.30
2022-10-11T21:11:11.489Z,6.03
2022-10-11T21:13:38.358Z,5.80
2022-10-11T21:16:13.417Z,7.33
2022-10-11T21:18:40.743Z,7.17
2022-10-11T21:21:12.542Z,6.03
2022-10-11T21:23:39.906Z,6.90
2022-10-11T21:26:09.262Z,6.67
2022-10-11T21:28:36.539Z,5.70
2022-10-11T21:31:04.498Z,6.80
2022-10-11T21:33:31.320Z,5.80
2022-10-11T21:35:58.186Z,6.57
2022-10-11T21:38:24.816Z,6.90
2022-10-11T21:40:51.773Z,6.27
2022-10-11T21:43:18.357Z,7.50
2022-10-11T21:45:45.787Z,6.27
2022-10-11T21:48:12.463Z,6.87
2022-10-11T21:50:39.221Z,6.20
2022-10-11T21:53:05.809Z,6.43
2022-10-11T21:55:32.492Z,5.90
2022-10-11T21:57:59.283Z,6.20
2022-10-11T22:00:25.972Z,5.83
2022-10-11T22:02:52.578Z,6.27
2022-10-11T22:05:19.227Z,6.03
2022-10-11T22:07:45.877Z,5.67
2022-10-11T22:10:12.496Z,6.30
2022-10-11T22:12:39.166Z,6.57
2022-10-11T22:15:06.415Z,6.23
2022-10-11T22:17:33.117Z,6.50
2022-10-11T22:20:00.549Z,6.37
2022-10-11T22:22:27.208Z,6.90
2022-10-11T22:24:53.816Z,7.13
2022-10-11T22:27:20.505Z,6.30
2022-10-11T22:29:47.152Z,6.37
2022-10-11T22:32:13.813Z,5.73
2022-10-11T22:34:40.423Z,6.50
2022-10-11T22:37:07.033Z,5.77
2022-10-11T22:39:33.980Z,6.50
2022-10-11T22:42:00.604Z,7.30
2022-10-11T22:44:27.187Z,6.67
2022-10-11T22:46:53.876Z,6.00
2022-10-11T22:49:20.536Z,6.80
2022-10-11T22:51:49.298Z,8.03
2022-10-11T22:54:15.949Z,6.20
2022-10-11T22:56:42.709Z,7.07
2022-10-11T22:59:09.551Z,6.43
2022-10-11T23:01:36.228Z,7.57
2022-10-11T23:04:02.930Z,5.87
2022-10-11T23:06:29.814Z,6.47
2022-10-11T23:08:56.555Z,6.70
2022-10-11T23:11:23.248Z,5.83
2022-10-11T23:13:49.886Z,7.33
2022-10-11T23:16:16.594Z,6.60
2022-10-11T23:18:43.422Z,6.80
2022-10-11T23:21:10.521Z,5.77
2022-10-11T23:23:39.505Z,6.93
2022-10-11T23:26:10.514Z,6.40
2022-10-11T23:28:37.541Z,6.30
2022-10-11T23:31:16.385Z,5.63
2022-10-11T23:33:46.808Z,5.40
2022-10-11T23:36:22.109Z,5.97
2022-10-11T23:38:53.376Z,6.00
2022-10-11T23:41:22.163Z,5.40
2022-10-11T23:43:48.777Z,5.77
2022-10-11T23:46:15.659Z,6.73
2022-10-11T23:48:43.982Z,6.20
2022-10-11T23:51:11.034Z,6.33
2022-10-11T23:53:38.198Z,5.77
2022-10-11T23:56:05.500Z,5.97
2022-10-11T23:58:32.570Z,5.80
